createdAt,value
2022-08-28T00:00:45.572Z,99.90
2022-08-28T00:03:13.513Z,99.90
2022-08-28T00:05:43.338Z,99.90
2022-08-28T00:08:12.800Z,99.90
2022-08-28T00:10:42.981Z,99.90
2022-08-28T00:13:18.652Z,99.90
2022-08-28T00:15:47.083Z,99.90
2022-08-28T00:18:14.461Z,99.90
2022-08-28T00:20:42.343Z,99.90
2022-08-28T00:23:09.867Z,99.90
2022-08-28T00:25:37.994Z,99.90
2022-08-28T00:28:08.744Z,99.90
2022-08-28T00:30:42.636Z,99.90
2022-08-28T00:33:13.953Z,99.90
2022-08-28T00:35:42.402Z,99.90
2022-08-28T00:38:10.523Z,99.90
2022-08-28T00:40:38.326Z,99.90
2022-08-28T00:43:06.256Z,99.90
2022-08-28T00:45:39.287Z,99.90
2022-08-28T00:48:07.792Z,99.90
2022-08-28T00:51:00.339Z,99.90
2022-08-28T00:53:29.946Z,99.90
2022-08-28T00:56:02.019Z,99.90
2022-08-28T00:58:31.808Z,99.90
2022-08-28T01:01:00.766Z,99.90
2022-08-28T01:03:29.001Z,99.90
2022-08-28T01:05:56.301Z,99.90
2022-08-28T01:08:23.604Z,99.90
2022-08-28T01:10:53.886Z,99.90
2022-08-28T01:13:21.339Z,99.90
2022-08-28T01:15:50.306Z,99.90
2022-08-28T01:18:17.935Z,99.90
2022-08-28T01:21:08.364Z,99.90
2022-08-28T01:23:53.634Z,99.90
2022-08-28T01:26:21.468Z,99.90
2022-08-28T01:28:48.769Z,99.90
2022-08-28T01:31:16.621Z,99.90
2022-08-28T01:33:44.606Z,99.90
2022-08-28T01:36:13.838Z,99.90
2022-08-28T01:38:42.500Z,99.90
2022-08-28T01:41:11.260Z,99.90
2022-08-28T01:43:39.267Z,99.90
2022-08-28T01:46:07.163Z,99.90
2022-08-28T01:48:37.586Z,99.90
2022-08-28T01:51:06.109Z,99.90
2022-08-28T01:53:33.656Z,99.90
2022-08-28T01:56:04.647Z,99.90
2022-08-28T01:58:36.180Z,99.90
2022-08-28T02:01:05.220Z,99.90
2022-08-28T02:03:33.645Z,99.90
2022-08-28T02:06:01.008Z,99.90
2022-08-28T02:08:28.231Z,99.90
2022-08-28T02:10:55.492Z,99.90
2022-08-28T02:13:22.738Z,99.90
2022-08-28T02:15:53.163Z,99.90
2022-08-28T02:18:20.565Z,99.90
2022-08-28T02:20:47.867Z,99.90
2022-08-28T02:23:15.096Z,99.90
2022-08-28T02:25:42.392Z,99.90
2022-08-28T02:28:09.751Z,99.90
2022-08-28T02:30:37.086Z,99.90
2022-08-28T02:33:04.263Z,99.90
2022-08-28T02:35:31.729Z,99.90
2022-08-28T02:38:05.359Z,99.90
2022-08-28T02:40:33.225Z,99.90
2022-08-28T02:43:00.684Z,99.90
2022-08-28T02:45:28.079Z,99.90
2022-08-28T02:47:56.993Z,99.90
2022-08-28T02:50:24.454Z,99.90
2022-08-28T02:52:51.924Z,99.90
2022-08-28T02:55:19.585Z,99.90
2022-08-28T02:57:47.597Z,99.90
2022-08-28T03:00:17.401Z,99.90
2022-08-28T03:02:46.441Z,99.90
2022-08-28T03:05:15.140Z,99.90
2022-08-28T03:07:42.913Z,99.90
2022-08-28T03:10:10.850Z,99.90
2022-08-28T03:12:38.492Z,99.90
2022-08-28T03:15:06.394Z,99.90
2022-08-28T03:17:33.997Z,99.90
2022-08-28T03:20:01.295Z,99.90
2022-08-28T03:22:46.706Z,99.90
2022-08-28T03:25:14.112Z,99.90
2022-08-28T03:27:41.322Z,99.90
2022-08-28T03:30:09.500Z,99.90
2022-08-28T03:32:36.803Z,99.90
2022-08-28T03:35:05.651Z,99.90
2022-08-28T03:37:32.859Z,99.90
2022-08-28T03:40:01.952Z,99.90
2022-08-28T03:42:29.165Z,99.90
2022-08-28T03:44:56.525Z,99.90
2022-08-28T03:47:24.745Z,99.90
2022-08-28T03:49:56.613Z,99.90
2022-08-28T03:52:29.338Z,99.90
2022-08-28T03:54:56.721Z,99.90
2022-08-28T03:57:24.333Z,99.90
2022-08-28T03:59:52.476Z,99.90
2022-08-28T04:02:20.691Z,99.90
2022-08-28T04:04:48.437Z,99.90
2022-08-28T04:07:16.104Z,99.90
2022-08-28T04:09:43.800Z,99.90
2022-08-28T04:12:11.021Z,99.90
2022-08-28T04:14:38.630Z,99.90
2022-08-28T04:17:08.810Z,99.90
2022-08-28T04:19:36.232Z,99.90
2022-08-28T04:22:04.357Z,99.90
2022-08-28T04:24:31.707Z,99.90
2022-08-28T04:26:59.061Z,99.90
2022-08-28T04:29:26.395Z,99.90
2022-08-28T04:31:53.605Z,99.90
2022-08-28T04:34:21.067Z,99.90
2022-08-28T04:36:50.991Z,99.90
2022-08-28T04:39:18.345Z,99.90
2022-08-28T04:41:45.544Z,99.90
2022-08-28T04:44:12.919Z,99.90
2022-08-28T04:46:40.100Z,99.90
2022-08-28T04:49:07.877Z,99.90
2022-08-28T04:51:37.823Z,99.90
2022-08-28T04:54:10.954Z,99.90
2022-08-28T04:56:39.393Z,99.90
2022-08-28T04:59:07.009Z,99.90
2022-08-28T05:01:34.254Z,99.90
2022-08-28T05:04:03.004Z,99.90
2022-08-28T05:06:31.178Z,99.90
2022-08-28T05:08:59.434Z,99.90
2022-08-28T05:11:34.228Z,99.90
2022-08-28T05:14:04.717Z,99.90
2022-08-28T05:16:32.658Z,99.90
2022-08-28T05:19:00.925Z,99.90
2022-08-28T05:21:28.644Z,99.90
2022-08-28T05:23:57.677Z,99.90
2022-08-28T05:26:26.898Z,99.90
2022-08-28T05:28:56.350Z,99.40
2022-08-28T05:31:24.119Z,98.40
2022-08-28T05:33:52.900Z,99.10
2022-08-28T05:36:22.268Z,97.70
2022-08-28T05:38:50.586Z,97.70
2022-08-28T05:41:24.154Z,96.80
2022-08-28T05:43:53.112Z,96.30
2022-08-28T05:46:21.145Z,96.60
2022-08-28T05:48:49.492Z,95.20
2022-08-28T05:51:18.538Z,94.70
2022-08-28T05:53:48.100Z,93.30
2022-08-28T05:56:16.540Z,93.40
2022-08-28T05:58:44.247Z,93.90
2022-08-28T06:01:15.587Z,94.50
2022-08-28T06:03:44.311Z,96.10
2022-08-28T06:06:12.381Z,96.20
2022-08-28T06:08:58.350Z,95.90
2022-08-28T06:11:30.481Z,96.10
2022-08-28T06:14:01.549Z,97.10
2022-08-28T06:16:32.529Z,97.00
2022-08-28T06:19:00.728Z,97.00
2022-08-28T06:21:28.587Z,96.50
2022-08-28T06:23:56.332Z,95.80
2022-08-28T06:26:23.989Z,95.10
2022-08-28T06:28:52.479Z,95.60
2022-08-28T06:31:24.071Z,95.00
2022-08-28T06:33:54.382Z,94.80
2022-08-28T06:36:22.313Z,94.60
2022-08-28T06:38:49.707Z,94.50
2022-08-28T06:41:17.158Z,94.00
2022-08-28T06:43:44.517Z,94.20
2022-08-28T06:46:11.802Z,93.90
2022-08-28T06:48:39.260Z,94.40
2022-08-28T06:51:07.652Z,94.60
2022-08-28T06:53:35.516Z,94.30
2022-08-28T06:56:08.414Z,93.40
2022-08-28T06:58:37.702Z,92.70
2022-08-28T07:01:16.967Z,92.40
2022-08-28T07:03:45.622Z,92.20
2022-08-28T07:06:14.699Z,91.30
2022-08-28T07:08:43.983Z,90.40
2022-08-28T07:11:15.773Z,89.00
2022-08-28T07:13:45.376Z,88.90
2022-08-28T07:16:15.378Z,88.10
2022-08-28T07:18:43.017Z,86.10
2022-08-28T07:21:12.621Z,85.10
2022-08-28T07:23:42.256Z,83.80
2022-08-28T07:26:18.608Z,83.30
2022-08-28T07:28:47.462Z,81.60
2022-08-28T07:31:19.100Z,84.00
2022-08-28T07:33:47.122Z,84.50
2022-08-28T07:36:29.011Z,86.80
2022-08-28T07:38:59.232Z,86.80
2022-08-28T07:41:29.653Z,88.00
2022-08-28T07:44:15.671Z,87.90
2022-08-28T07:46:44.701Z,87.70
2022-08-28T07:49:17.248Z,87.90
2022-08-28T07:51:46.788Z,87.00
2022-08-28T07:54:17.879Z,87.00
2022-08-28T07:56:47.104Z,86.20
2022-08-28T07:59:17.443Z,86.60
2022-08-28T08:01:50.905Z,87.10
2022-08-28T08:04:20.143Z,87.00
2022-08-28T08:06:48.033Z,85.00
2022-08-28T08:09:17.989Z,83.80
2022-08-28T08:11:46.843Z,85.30
2022-08-28T08:14:15.536Z,85.60
2022-08-28T08:16:46.145Z,85.00
2022-08-28T08:19:15.449Z,85.80
2022-08-28T08:21:45.783Z,85.50
2022-08-28T08:24:19.774Z,85.60
2022-08-28T08:26:50.821Z,82.30
2022-08-28T08:29:30.164Z,80.30
2022-08-28T08:32:02.885Z,80.30
2022-08-28T08:34:30.824Z,80.10
2022-08-28T08:36:58.390Z,79.70
2022-08-28T08:39:25.908Z,79.60
2022-08-28T08:41:57.068Z,79.20
2022-08-28T08:44:33.574Z,80.50
2022-08-28T08:47:24.833Z,80.00
2022-08-28T08:50:01.640Z,81.00
2022-08-28T08:52:36.426Z,81.10
2022-08-28T08:55:25.071Z,80.20
2022-08-28T08:58:11.598Z,80.00
2022-08-28T09:00:53.848Z,79.10
2022-08-28T09:03:26.627Z,78.80
2022-08-28T09:06:03.824Z,78.60
2022-08-28T09:08:39.708Z,76.90
2022-08-28T09:11:28.873Z,75.50
2022-08-28T09:14:29.483Z,74.80
2022-08-28T09:16:58.406Z,73.60
2022-08-28T09:19:25.854Z,74.70
2022-08-28T09:21:53.831Z,72.60
2022-08-28T09:24:32.404Z,70.50
2022-08-28T09:27:04.357Z,69.20
2022-08-28T09:29:38.627Z,68.50
2022-08-28T09:32:30.491Z,68.60
2022-08-28T09:35:29.615Z,67.10
2022-08-28T09:38:17.724Z,67.60
2022-08-28T09:41:04.247Z,67.10
2022-08-28T09:43:33.709Z,65.20
2022-08-28T09:46:03.336Z,60.90
2022-08-28T09:48:33.767Z,59.90
2022-08-28T09:51:03.990Z,57.60
2022-08-28T09:53:36.154Z,57.00
2022-08-28T09:56:11.077Z,55.10
2022-08-28T09:58:41.884Z,54.40
2022-08-28T10:01:11.878Z,55.60
2022-08-28T10:03:47.145Z,56.20
2022-08-28T10:06:29.262Z,56.20
2022-08-28T10:09:22.122Z,54.90
2022-08-28T10:12:01.452Z,55.80
2022-08-28T10:14:49.119Z,56.10
2022-08-28T10:17:34.858Z,56.40
2022-08-28T10:20:08.105Z,54.90
2022-08-28T10:22:41.836Z,53.30
2022-08-28T10:25:21.386Z,52.30
2022-08-28T10:27:52.006Z,50.20
2022-08-28T10:30:23.646Z,50.10
2022-08-28T10:33:00.680Z,47.70
2022-08-28T10:35:40.143Z,46.40
2022-08-28T10:38:16.457Z,47.10
2022-08-28T10:40:54.302Z,46.20
2022-08-28T10:43:26.586Z,45.10
2022-08-28T10:45:55.184Z,45.80
2022-08-28T10:48:22.360Z,44.60
2022-08-28T10:50:52.358Z,44.60
2022-08-28T10:53:24.586Z,44.40
2022-08-28T10:55:51.881Z,44.30
2022-08-28T10:58:24.948Z,43.60
2022-08-28T11:01:04.815Z,42.80
2022-08-28T11:03:41.966Z,42.70
2022-08-28T11:06:14.293Z,42.70
2022-08-28T11:08:41.696Z,42.70
2022-08-28T11:11:13.425Z,42.40
2022-08-28T11:13:40.675Z,42.00
2022-08-28T11:16:12.613Z,41.30
2022-08-28T11:18:45.781Z,40.60
2022-08-28T11:21:33.335Z,39.30
2022-08-28T11:24:21.493Z,40.00
2022-08-28T11:26:59.640Z,38.90
2022-08-28T11:29:45.842Z,38.60
2022-08-28T11:32:28.919Z,39.30
2022-08-28T11:35:00.603Z,38.70
2022-08-28T11:37:42.173Z,39.70
2022-08-28T11:40:18.747Z,40.10
2022-08-28T11:42:49.849Z,39.90
2022-08-28T11:45:21.714Z,39.10
2022-08-28T11:47:52.420Z,39.40
2022-08-28T11:50:25.121Z,37.90
2022-08-28T11:53:08.043Z,37.40
2022-08-28T11:55:53.687Z,38.30
2022-08-28T11:58:21.403Z,37.10
2022-08-28T12:00:48.614Z,35.80
2022-08-28T12:03:24.432Z,37.00
2022-08-28T12:05:54.448Z,36.50
2022-08-28T12:08:47.875Z,36.60
2022-08-28T12:11:33.576Z,37.70
2022-08-28T12:14:00.946Z,37.50
2022-08-28T12:16:29.776Z,37.70
2022-08-28T12:18:58.785Z,38.40
2022-08-28T12:21:28.060Z,37.30
2022-08-28T12:23:58.888Z,37.30
2022-08-28T12:26:32.046Z,37.60
2022-08-28T12:29:04.020Z,37.60
2022-08-28T12:31:49.621Z,37.00
2022-08-28T12:34:22.966Z,37.40
2022-08-28T12:36:57.473Z,37.00
2022-08-28T12:39:24.911Z,35.50
2022-08-28T12:41:52.179Z,37.20
2022-08-28T12:44:23.757Z,37.60
2022-08-28T12:46:51.481Z,37.70
2022-08-28T12:49:33.588Z,37.50
2022-08-28T12:52:16.566Z,37.80
2022-08-28T12:54:45.482Z,38.10
2022-08-28T12:57:14.175Z,37.70
2022-08-28T12:59:45.321Z,38.00
2022-08-28T13:02:18.828Z,38.10
2022-08-28T13:04:52.490Z,39.20
2022-08-28T13:07:24.366Z,39.30
2022-08-28T13:09:53.089Z,39.10
2022-08-28T13:12:23.351Z,39.90
2022-08-28T13:15:07.065Z,38.40
2022-08-28T13:18:03.694Z,38.60
2022-08-28T13:20:33.080Z,39.40
2022-08-28T13:23:00.682Z,39.40
2022-08-28T13:25:37.717Z,39.30
2022-08-28T13:28:17.837Z,38.80
2022-08-28T13:30:56.543Z,39.70
2022-08-28T13:33:24.912Z,39.30
2022-08-28T13:35:53.815Z,39.30
2022-08-28T13:38:22.211Z,39.00
2022-08-28T13:40:59.859Z,38.80
2022-08-28T13:43:29.693Z,38.80
2022-08-28T13:45:58.033Z,38.10
2022-08-28T13:48:26.448Z,38.30
2022-08-28T13:50:58.321Z,38.80
2022-08-28T13:53:25.797Z,38.50
2022-08-28T13:55:53.284Z,39.00
2022-08-28T13:58:24.083Z,38.60
2022-08-28T14:00:51.601Z,39.20
2022-08-28T14:03:38.686Z,39.10
2022-08-28T14:06:11.872Z,39.40
2022-08-28T14:08:40.669Z,39.80
2022-08-28T14:11:08.022Z,40.10
2022-08-28T14:13:35.472Z,40.50
2022-08-28T14:16:06.530Z,41.00
2022-08-28T14:18:34.111Z,41.40
2022-08-28T14:21:01.505Z,41.40
2022-08-28T14:23:29.261Z,42.80
2022-08-28T14:25:56.446Z,41.20
2022-08-28T14:28:24.211Z,41.80
2022-08-28T14:30:51.886Z,42.20
2022-08-28T14:33:20.781Z,42.80
2022-08-28T14:35:49.107Z,42.50
2022-08-28T14:38:16.989Z,43.40
2022-08-28T14:40:44.939Z,43.20
2022-08-28T14:43:14.117Z,43.50
2022-08-28T14:45:42.956Z,43.20
2022-08-28T14:48:10.518Z,43.50
2022-08-28T14:50:39.245Z,44.10
2022-08-28T14:53:06.635Z,44.30
2022-08-28T14:55:38.491Z,44.60
2022-08-28T14:58:05.818Z,44.60
2022-08-28T15:00:33.088Z,45.00
2022-08-28T15:03:00.513Z,44.00
2022-08-28T15:05:27.688Z,44.20
2022-08-28T15:07:55.109Z,45.20
2022-08-28T15:10:22.354Z,45.30
2022-08-28T15:12:51.643Z,45.10
2022-08-28T15:15:20.954Z,44.60
2022-08-28T15:17:48.301Z,45.10
2022-08-28T15:20:15.601Z,45.90
2022-08-28T15:22:43.175Z,46.30
2022-08-28T15:25:10.871Z,44.90
2022-08-28T15:27:38.286Z,45.40
2022-08-28T15:30:05.831Z,46.30
2022-08-28T15:32:35.109Z,46.20
2022-08-28T15:35:02.308Z,47.10
2022-08-28T15:37:31.467Z,45.90
2022-08-28T15:40:17.534Z,47.10
2022-08-28T15:42:45.582Z,46.20
2022-08-28T15:45:12.831Z,47.40
2022-08-28T15:47:40.908Z,47.10
2022-08-28T15:50:08.279Z,47.30
2022-08-28T15:52:39.113Z,48.60
2022-08-28T15:55:06.507Z,47.40
2022-08-28T15:57:33.807Z,48.80
2022-08-28T16:00:01.011Z,48.60
2022-08-28T16:02:28.336Z,49.00
2022-08-28T16:04:55.571Z,50.10
2022-08-28T16:07:23.411Z,52.00
2022-08-28T16:09:50.687Z,53.50
2022-08-28T16:12:18.346Z,53.60
2022-08-28T16:14:45.596Z,54.00
2022-08-28T16:17:12.969Z,55.10
2022-08-28T16:19:40.631Z,55.50
2022-08-28T16:22:08.502Z,56.40
2022-08-28T16:24:35.973Z,57.10
2022-08-28T16:27:03.343Z,56.70
2022-08-28T16:29:30.603Z,57.70
2022-08-28T16:31:58.149Z,57.50
2022-08-28T16:34:31.220Z,57.90
2022-08-28T16:36:59.468Z,58.30
2022-08-28T16:39:27.210Z,58.70
2022-08-28T16:41:54.540Z,58.50
2022-08-28T16:44:23.028Z,59.00
2022-08-28T16:46:50.548Z,60.20
2022-08-28T16:49:17.882Z,60.40
2022-08-28T16:51:45.242Z,61.40
2022-08-28T16:54:12.502Z,62.40
2022-08-28T16:56:40.269Z,61.70
2022-08-28T16:59:10.551Z,62.10
2022-08-28T17:01:40.811Z,62.00
2022-08-28T17:04:10.262Z,63.30
2022-08-28T17:06:37.525Z,63.20
2022-08-28T17:09:04.885Z,63.80
2022-08-28T17:11:32.157Z,64.00
2022-08-28T17:14:00.320Z,65.30
2022-08-28T17:16:31.716Z,65.10
2022-08-28T17:18:59.586Z,65.50
2022-08-28T17:21:45.505Z,66.00
2022-08-28T17:24:13.011Z,65.70
2022-08-28T17:26:41.492Z,66.40
2022-08-28T17:29:09.313Z,66.80
2022-08-28T17:31:36.985Z,66.80
2022-08-28T17:34:05.809Z,67.00
2022-08-28T17:36:34.414Z,68.20
2022-08-28T17:39:02.453Z,68.50
2022-08-28T17:41:29.766Z,68.00
2022-08-28T17:43:57.156Z,69.40
2022-08-28T17:46:24.397Z,70.00
2022-08-28T17:48:55.598Z,70.60
2022-08-28T17:51:33.156Z,70.60
2022-08-28T17:54:12.920Z,71.00
2022-08-28T17:56:40.697Z,71.40
2022-08-28T17:59:08.191Z,72.20
2022-08-28T18:01:36.216Z,73.10
2022-08-28T18:04:05.326Z,73.60
2022-08-28T18:06:32.766Z,74.20
2022-08-28T18:09:00.623Z,74.50
2022-08-28T18:11:28.248Z,74.70
2022-08-28T18:13:55.564Z,75.60
2022-08-28T18:16:26.511Z,75.90
2022-08-28T18:18:57.216Z,76.00
2022-08-28T18:21:24.629Z,76.70
2022-08-28T18:23:52.118Z,77.80
2022-08-28T18:26:19.414Z,78.60
2022-08-28T18:28:46.937Z,79.40
2022-08-28T18:31:14.430Z,80.20
2022-08-28T18:33:41.927Z,80.70
2022-08-28T18:36:11.039Z,80.30
2022-08-28T18:38:38.727Z,78.80
2022-08-28T18:41:06.931Z,79.20
2022-08-28T18:43:34.816Z,79.50
2022-08-28T18:46:02.991Z,79.80
2022-08-28T18:48:31.737Z,79.70
2022-08-28T18:50:58.932Z,79.70
2022-08-28T18:53:26.702Z,80.00
2022-08-28T18:55:55.287Z,79.90
2022-08-28T18:58:23.768Z,80.20
2022-08-28T19:00:51.379Z,80.30
2022-08-28T19:03:18.721Z,80.90
2022-08-28T19:05:46.242Z,80.70
2022-08-28T19:08:14.532Z,81.40
2022-08-28T19:10:42.129Z,81.70
2022-08-28T19:13:09.686Z,82.20
2022-08-28T19:15:37.347Z,82.60
2022-08-28T19:18:05.564Z,82.80
2022-08-28T19:20:33.210Z,83.50
2022-08-28T19:23:00.694Z,83.90
2022-08-28T19:25:31.219Z,83.90
2022-08-28T19:27:59.656Z,84.40
2022-08-28T19:30:27.828Z,84.20
2022-08-28T19:32:55.430Z,83.80
2022-08-28T19:35:24.577Z,83.30
2022-08-28T19:37:52.637Z,83.80
2022-08-28T19:40:21.033Z,84.00
2022-08-28T19:42:50.152Z,84.50
2022-08-28T19:45:17.944Z,85.60
2022-08-28T19:47:45.827Z,87.00
2022-08-28T19:50:14.129Z,86.90
2022-08-28T19:52:43.322Z,87.60
2022-08-28T19:55:18.844Z,88.30
2022-08-28T19:57:47.000Z,88.30
2022-08-28T20:00:15.446Z,89.30
2022-08-28T20:02:43.312Z,90.10
2022-08-28T20:05:10.976Z,90.30
2022-08-28T20:07:38.328Z,90.70
2022-08-28T20:10:06.285Z,91.00
2022-08-28T20:12:33.984Z,91.30
2022-08-28T20:15:03.762Z,91.60
2022-08-28T20:17:31.390Z,91.80
2022-08-28T20:20:02.426Z,92.20
2022-08-28T20:22:32.134Z,92.30
2022-08-28T20:24:59.551Z,92.60
2022-08-28T20:27:27.350Z,92.80
2022-08-28T20:29:54.596Z,93.30
2022-08-28T20:32:21.913Z,93.50
2022-08-28T20:34:49.082Z,93.80
2022-08-28T20:37:16.978Z,94.20
2022-08-28T20:39:44.207Z,94.40
2022-08-28T20:42:11.993Z,94.60
2022-08-28T20:44:39.392Z,94.90
2022-08-28T20:47:06.777Z,95.10
2022-08-28T20:49:36.807Z,95.50
2022-08-28T20:52:07.321Z,95.80
2022-08-28T20:54:37.399Z,95.90
2022-08-28T20:57:11.775Z,96.20
2022-08-28T20:59:40.986Z,96.50
2022-08-28T21:02:15.943Z,96.70
2022-08-28T21:04:44.106Z,97.10
2022-08-28T21:07:11.827Z,97.50
2022-08-28T21:10:04.208Z,98.00
2022-08-28T21:12:26.868Z,98.50
2022-08-28T21:14:54.223Z,99.20
2022-08-28T21:17:29.571Z,99.20
2022-08-28T21:19:59.003Z,99.30
2022-08-28T21:22:26.463Z,99.60
2022-08-28T21:24:53.996Z,99.70
2022-08-28T21:27:21.221Z,99.90
2022-08-28T21:29:48.493Z,99.90
2022-08-28T21:32:17.218Z,99.90
2022-08-28T21:34:44.726Z,99.90
2022-08-28T21:37:11.910Z,99.90
2022-08-28T21:39:39.155Z,99.90
2022-08-28T21:42:06.501Z,99.90
2022-08-28T21:44:34.281Z,99.90
2022-08-28T21:47:01.519Z,99.90
2022-08-28T21:49:29.038Z,99.90
2022-08-28T21:51:56.401Z,99.90
2022-08-28T21:54:23.838Z,99.90
2022-08-28T21:56:58.747Z,99.90
2022-08-28T21:59:30.355Z,99.90
2022-08-28T22:02:06.764Z,99.90
2022-08-28T22:04:35.062Z,99.90
2022-08-28T22:07:02.591Z,99.90
2022-08-28T22:09:30.028Z,99.90
2022-08-28T22:11:57.512Z,99.90
2022-08-28T22:14:25.317Z,99.90
2022-08-28T22:16:52.906Z,99.90
2022-08-28T22:19:20.425Z,99.90
2022-08-28T22:22:06.655Z,99.90
2022-08-28T22:24:34.405Z,99.90
2022-08-28T22:27:01.776Z,99.90
2022-08-28T22:29:36.549Z,99.90
2022-08-28T22:32:05.550Z,99.90
2022-08-28T22:34:42.993Z,99.90
2022-08-28T22:37:13.921Z,99.90
2022-08-28T22:39:42.473Z,99.90
2022-08-28T22:42:10.726Z,99.90
2022-08-28T22:44:38.636Z,99.90
2022-08-28T22:47:06.474Z,99.90
2022-08-28T22:49:34.174Z,99.90
2022-08-28T22:52:09.213Z,99.90
2022-08-28T22:54:36.943Z,99.90
2022-08-28T22:57:06.068Z,99.90
2022-08-28T22:59:34.524Z,99.90
2022-08-28T23:02:03.812Z,99.90
2022-08-28T23:04:31.422Z,99.90
2022-08-28T23:06:58.907Z,99.90
2022-08-28T23:09:26.508Z,99.90
2022-08-28T23:11:53.980Z,99.90
2022-08-28T23:14:21.374Z,99.90
2022-08-28T23:16:49.350Z,99.90
2022-08-28T23:19:17.943Z,99.90
2022-08-28T23:21:45.766Z,99.90
2022-08-28T23:24:14.204Z,99.90
2022-08-28T23:26:42.710Z,99.90
2022-08-28T23:29:11.193Z,99.90
2022-08-28T23:31:39.668Z,99.90
2022-08-28T23:34:07.168Z,99.90
2022-08-28T23:36:36.603Z,99.90
2022-08-28T23:39:05.244Z,99.90
2022-08-28T23:41:33.702Z,99.90
2022-08-28T23:44:04.148Z,99.90
2022-08-28T23:46:35.365Z,99.90
2022-08-28T23:49:03.908Z,99.90
2022-08-28T23:51:31.408Z,99.90
2022-08-28T23:53:58.805Z,99.90
2022-08-28T23:56:28.067Z,99.90
2022-08-28T23:58:59.162Z,99.90
